Agua Zarca de la Pena, México

7:34 PM CDT en Octubre 22, 2017 (GMT -0500)
Gen Juan N Alvarez International | | Change Station

Alt 13 ft 16.76 °N, 99.75 °W | Updated 48 minutes ago

Muy nublado
Muy nublado
84 ° F
Sensación térmica 96 ° F
N
7
Viento Variable Viento desde Oeste

Hoy
Alta -- | Baja -- ° F
--% Posibilidad de precipitaciones
Ayer
Alta -- | Baja -- ° F
Precip. -- pul
Presión 29.76 pul
Visibilidad 6.0 Millas
Nubes Nubes dispersas 1500 ft
Nubes dispersas 12000 ft
Muy nublado 30000 ft
Índice de calor 96 ° F
Punto de rocío 79 ° F
Humedad 84%
Precipitaciones 0.00 pul
Espesor de la nieve No disponible.
7:32 AM 7:12 PM
Creciente, 10% visible
METAR MMAA 222346Z 27006KT 6SM SCT015 SCT120 BKN300 29/26 A2978 RMK SLP076 52004 906 8/132 HZY
Presión 29.76 pul
Visibilidad 6.0 Millas
Nubes Nubes dispersas 1500 ft
Nubes dispersas 12000 ft
Muy nublado 30000 ft
Índice de calor 96 ° F
Punto de rocío 79 ° F
Humedad 84%
Precipitaciones 0.00 pul
Espesor de la nieve No disponible.
7:32 AM 7:12 PM
Creciente, 10% visible
METAR MMAA 222346Z 27006KT 6SM SCT015 SCT120 BKN300 29/26 A2978 RMK SLP076 52004 906 8/132 HZY

Get Severe Weather Alerts

Thanks for signing up!

Be on the lookout for a verification email in your inbox.

You'll start receiving the daily forecast at 6 AM.

×

10-Day Weather Forecast

No radar image for this location.
×

Almanac

Astronomía

Oct. 22, 2017 Salida Puesta
Hora real
Crepúsculo civil
Crepúsculo náutico
Crepúsculo astronómico
Luna
Horas de luz
Horas de luz
Tomorrow will be .
, % of the Moon is Illuminated

Extremos de hoy

Máximos del país Bajas del país

Community

WunderPhotos

Category 6

Welcome to Category 6. This is the collective home for Weather Underground's featured writeups by Dr. Jeff Masters (right), Bob Henson (left), Chris Burt, and other regular contributors.

Nearby

Calidad del aire

  Calidad del aire Índice AQ Contaminante
Not available.

Grosos de nieve

Estación Profundido Altura

Actividad de terremotos

Ciudad Distance Mag. Tiempo y dato
Magnitud mínima muestra es 2,5.

Temperaturas de aguas costeras

Lugar Temperatura

Stations

Estaciones meteorológicas cercanas

Ubicación de la estación Temp. Vientos helados Punto de rocío Humedad Viento Precip. Alt Actualizado Tipo